createdAt,value
2022-12-26T00:02:01.947Z,100183.56
2022-12-26T00:07:10.527Z,100173.82
2022-12-26T00:12:18.693Z,100165.80
2022-12-26T00:17:27.089Z,100163.72
2022-12-26T00:22:36.204Z,100168.06
2022-12-26T00:27:44.513Z,100180.41
2022-12-26T00:32:52.835Z,100184.58
2022-12-26T00:38:02.005Z,100186.13
2022-12-26T00:43:10.701Z,100171.35
2022-12-26T00:48:19.188Z,100155.86
2022-12-26T00:53:28.237Z,100135.52
2022-12-26T00:58:38.460Z,100119.52
2022-12-26T01:03:48.409Z,100118.48
2022-12-26T01:08:57.381Z,100123.35
2022-12-26T01:14:05.647Z,100124.58
2022-12-26T01:19:15.189Z,100111.35
2022-12-26T01:24:23.354Z,100096.25
2022-12-26T01:29:31.613Z,100095.00
2022-12-26T01:34:40.175Z,100089.94
2022-12-26T01:39:48.492Z,100064.52
2022-12-26T01:45:07.147Z,100059.81
2022-12-26T01:50:27.834Z,100057.89
2022-12-26T01:55:38.151Z,100061.02
2022-12-26T02:00:46.661Z,100061.71
2022-12-26T02:05:56.418Z,100058.75
2022-12-26T02:11:12.948Z,100050.20
2022-12-26T02:16:22.532Z,100026.02
2022-12-26T02:22:23.142Z,100000.95
2022-12-26T02:27:50.406Z,99981.61
2022-12-26T02:33:34.767Z,99976.71
2022-12-26T02:38:54.495Z,99969.05
2022-12-26T02:44:26.809Z,99949.70
2022-12-26T02:49:59.199Z,99935.60
2022-12-26T02:55:28.726Z,99930.88
2022-12-26T03:00:59.728Z,99924.39
2022-12-26T03:06:32.584Z,99918.10
2022-12-26T03:12:03.950Z,99912.34
2022-12-26T03:17:23.443Z,99909.35
2022-12-26T03:22:39.000Z,99917.14
2022-12-26T03:27:47.206Z,99922.85
2022-12-26T03:32:56.826Z,99914.27
2022-12-26T03:38:10.144Z,99904.30
2022-12-26T03:43:46.890Z,99882.16
2022-12-26T03:49:23.321Z,99866.64
2022-12-26T03:54:57.895Z,99842.25
2022-12-26T04:00:28.549Z,99823.40
2022-12-26T04:05:58.585Z,99818.51
2022-12-26T04:11:30.368Z,99821.45
2022-12-26T04:17:02.574Z,99839.73
2022-12-26T04:22:35.998Z,99812.70
2022-12-26T04:28:03.123Z,99800.32
2022-12-26T04:33:38.417Z,99783.91
2022-12-26T04:39:09.171Z,99775.35
2022-12-26T04:44:19.359Z,99762.77
2022-12-26T04:49:47.342Z,99764.50
2022-12-26T04:54:54.945Z,99750.02
2022-12-26T05:00:03.052Z,99744.61
2022-12-26T05:05:30.747Z,99735.19
2022-12-26T05:10:39.562Z,99722.09
2022-12-26T05:16:07.087Z,99711.84
2022-12-26T05:21:38.423Z,99705.23
2022-12-26T05:27:04.276Z,99700.38
2022-12-26T05:32:12.968Z,99681.92
2022-12-26T05:37:21.756Z,99665.40
2022-12-26T05:42:30.277Z,99652.70
2022-12-26T05:47:39.329Z,99654.98
2022-12-26T05:52:47.756Z,99657.27
2022-12-26T05:57:56.184Z,99645.29
2022-12-26T06:03:05.327Z,99637.10
2022-12-26T06:08:13.989Z,99636.44
2022-12-26T06:13:22.175Z,99643.77
2022-12-26T06:18:30.886Z,99629.88
2022-12-26T06:23:40.526Z,99619.96
2022-12-26T06:28:49.111Z,99613.55
2022-12-26T06:34:01.973Z,99595.11
2022-12-26T06:39:10.377Z,99581.55
2022-12-26T06:44:19.094Z,99579.48
2022-12-26T06:49:32.607Z,99563.13
2022-12-26T06:54:42.788Z,99577.59
2022-12-26T06:59:52.257Z,99578.80
2022-12-26T07:05:00.751Z,99565.77
2022-12-26T07:10:10.234Z,99557.93
2022-12-26T07:15:18.995Z,99562.09
2022-12-26T07:20:27.187Z,99546.41
2022-12-26T07:25:35.809Z,99540.84
2022-12-26T07:30:48.767Z,99530.90
2022-12-26T07:36:01.502Z,99515.41
2022-12-26T07:41:24.669Z,99501.35
2022-12-26T07:46:33.727Z,99485.20
2022-12-26T07:51:42.766Z,99471.85
2022-12-26T07:56:51.265Z,99451.90
2022-12-26T08:02:00.289Z,99433.48
2022-12-26T08:07:09.148Z,99420.64
2022-12-26T08:12:17.439Z,99416.30
2022-12-26T08:17:25.757Z,99412.13
2022-12-26T08:22:34.303Z,99407.93
2022-12-26T08:27:43.812Z,99408.10
2022-12-26T08:32:52.474Z,99395.68
2022-12-26T08:38:01.617Z,99387.14
2022-12-26T08:43:32.037Z,99389.91
2022-12-26T08:48:40.148Z,99400.11
2022-12-26T08:53:49.970Z,99389.09
2022-12-26T08:58:59.074Z,99367.86
2022-12-26T09:04:08.640Z,99358.56
2022-12-26T09:09:16.915Z,99342.52
2022-12-26T09:14:25.090Z,99331.18
2022-12-26T09:19:33.552Z,99309.75
2022-12-26T09:24:41.830Z,99290.41
2022-12-26T09:29:49.651Z,99278.73
2022-12-26T09:34:58.680Z,99276.46
2022-12-26T09:40:09.046Z,99281.33
2022-12-26T09:45:20.112Z,99271.02
2022-12-26T09:50:37.095Z,99260.03
2022-12-26T09:55:52.128Z,99263.80
2022-12-26T10:01:09.910Z,99254.89
2022-12-26T10:06:22.087Z,99252.56
2022-12-26T10:11:45.020Z,99243.43
2022-12-26T10:17:01.349Z,99227.19
2022-12-26T10:22:25.055Z,99222.23
2022-12-26T10:27:40.383Z,99208.89
2022-12-26T10:32:54.498Z,99215.59
2022-12-26T10:38:14.046Z,99217.42
2022-12-26T10:43:29.063Z,99208.11
2022-12-26T10:48:38.463Z,99204.39
2022-12-26T10:53:50.624Z,99189.68
2022-12-26T10:59:05.967Z,99178.11
2022-12-26T11:04:53.158Z,99163.73
2022-12-26T11:09:57.766Z,99152.45
2022-12-26T11:15:09.760Z,99146.79
2022-12-26T11:20:33.848Z,99132.59
2022-12-26T11:25:52.875Z,99131.42
2022-12-26T11:31:02.926Z,99111.65
2022-12-26T11:36:21.165Z,99105.68
2022-12-26T11:41:43.099Z,99125.80
2022-12-26T11:46:55.316Z,99109.34
2022-12-26T11:52:05.599Z,99098.92
2022-12-26T11:57:23.298Z,99099.34
2022-12-26T12:02:34.054Z,99093.09
2022-12-26T12:07:54.804Z,99089.80
2022-12-26T12:13:12.460Z,99085.48
2022-12-26T12:18:32.514Z,99081.63
2022-12-26T12:23:56.436Z,99079.73
2022-12-26T12:29:29.425Z,99072.77
2022-12-26T12:34:48.718Z,99066.84
2022-12-26T12:40:08.127Z,99062.33
2022-12-26T12:45:28.561Z,99054.01
2022-12-26T12:50:46.311Z,99055.94
2022-12-26T12:56:12.704Z,99055.62
2022-12-26T13:01:25.512Z,99052.84
2022-12-26T13:06:43.251Z,99041.70
2022-12-26T13:11:57.748Z,99042.21
2022-12-26T13:17:11.427Z,99039.23
2022-12-26T13:22:26.645Z,99041.79
2022-12-26T13:27:41.195Z,99044.52
2022-12-26T13:32:50.358Z,99035.04
2022-12-26T13:38:00.565Z,99034.95
2022-12-26T13:43:37.814Z,99032.65
2022-12-26T13:49:02.094Z,99032.04
2022-12-26T13:54:15.904Z,99040.66
2022-12-26T13:59:31.467Z,99043.02
2022-12-26T14:04:56.594Z,99041.85
2022-12-26T14:10:15.946Z,99049.79
2022-12-26T14:15:43.833Z,99045.34
2022-12-26T14:21:00.856Z,99043.55
2022-12-26T14:26:22.080Z,99038.34
2022-12-26T14:31:42.182Z,99041.84
2022-12-26T14:36:54.792Z,99039.41
2022-12-26T14:42:46.895Z,99039.02
2022-12-26T14:47:53.965Z,99038.58
2022-12-26T14:53:33.212Z,99037.44
2022-12-26T14:58:45.584Z,99031.40
2022-12-26T15:03:59.074Z,99037.67
2022-12-26T15:09:24.403Z,99041.15
2022-12-26T15:15:02.607Z,99034.89
2022-12-26T15:20:52.764Z,99038.62
2022-12-26T15:26:21.335Z,99047.34
2022-12-26T15:31:50.617Z,99055.08
2022-12-26T15:37:04.501Z,99053.06
2022-12-26T15:42:33.885Z,99052.58
2022-12-26T15:47:51.167Z,99069.44
2022-12-26T15:53:16.938Z,99076.66
2022-12-26T15:58:52.015Z,99063.77
2022-12-26T16:04:01.915Z,99059.33
2022-12-26T16:09:36.683Z,99079.48
2022-12-26T16:14:47.335Z,99068.16
2022-12-26T16:19:57.195Z,99055.86
2022-12-26T16:25:08.861Z,99056.51
2022-12-26T16:30:22.514Z,99058.27
2022-12-26T16:35:34.764Z,99067.05
2022-12-26T16:40:44.036Z,99057.61
2022-12-26T16:45:54.747Z,99049.45
2022-12-26T16:51:04.921Z,99053.30
2022-12-26T16:56:28.591Z,99061.86
2022-12-26T17:01:39.168Z,99061.30
2022-12-26T17:06:54.540Z,99057.28
2022-12-26T17:12:05.309Z,99059.39
2022-12-26T17:17:32.707Z,99059.67
2022-12-26T17:22:41.157Z,99069.98
2022-12-26T17:27:51.647Z,99068.95
2022-12-26T17:33:06.192Z,99074.35
2022-12-26T17:38:21.609Z,99078.34
2022-12-26T17:43:36.122Z,99074.15
2022-12-26T17:48:45.419Z,99074.52
2022-12-26T17:53:55.099Z,99059.98
2022-12-26T17:59:04.499Z,99072.89
2022-12-26T18:04:13.375Z,99091.61
2022-12-26T18:09:29.988Z,99094.70
2022-12-26T18:14:38.802Z,99096.91
2022-12-26T18:19:47.282Z,99107.20
2022-12-26T18:24:55.774Z,99106.80
2022-12-26T18:30:04.441Z,99106.02
2022-12-26T18:35:14.055Z,99103.79
2022-12-26T18:40:35.876Z,99091.42
2022-12-26T18:45:44.960Z,99107.59
2022-12-26T18:50:54.994Z,99105.23
2022-12-26T18:56:03.277Z,99109.84
2022-12-26T19:01:15.525Z,99108.71
2022-12-26T19:06:26.985Z,99110.24
2022-12-26T19:11:36.293Z,99116.76
2022-12-26T19:16:44.618Z,99111.61
2022-12-26T19:21:53.224Z,99109.97
2022-12-26T19:27:01.564Z,99106.44
2022-12-26T19:32:10.729Z,99107.23
2022-12-26T19:37:19.308Z,99101.04
2022-12-26T19:42:28.546Z,99099.39
2022-12-26T19:47:37.635Z,99102.27
2022-12-26T19:52:46.063Z,99104.50
2022-12-26T19:57:54.223Z,99095.61
2022-12-26T20:03:03.884Z,99106.34
2022-12-26T20:08:13.311Z,99113.31
2022-12-26T20:13:22.133Z,99123.59
2022-12-26T20:18:31.832Z,99121.23
2022-12-26T20:23:41.135Z,99118.37
2022-12-26T20:28:50.478Z,99120.50
2022-12-26T20:33:59.993Z,99127.22
2022-12-26T20:39:10.801Z,99124.80
2022-12-26T20:44:20.086Z,99122.86
2022-12-26T20:49:29.527Z,99132.23
2022-12-26T20:54:38.139Z,99145.39
2022-12-26T20:59:46.651Z,99146.41
2022-12-26T21:04:56.710Z,99140.77
2022-12-26T21:10:05.187Z,99151.76
2022-12-26T21:15:14.366Z,99156.48
2022-12-26T21:20:23.500Z,99159.09
2022-12-26T21:25:32.110Z,99155.77
2022-12-26T21:30:40.923Z,99143.30
2022-12-26T21:35:53.795Z,99125.08
2022-12-26T21:41:02.380Z,99126.48
2022-12-26T21:46:14.627Z,99126.69
2022-12-26T21:51:22.149Z,99128.71
2022-12-26T21:56:30.527Z,99126.36
2022-12-26T22:01:39.077Z,99136.95
2022-12-26T22:06:48.001Z,99138.58
2022-12-26T22:12:13.537Z,99141.70
2022-12-26T22:17:21.884Z,99143.02
2022-12-26T22:22:30.407Z,99137.48
2022-12-26T22:27:38.839Z,99135.34
2022-12-26T22:32:47.570Z,99131.03
2022-12-26T22:37:55.735Z,99136.92
2022-12-26T22:43:04.175Z,99135.24
2022-12-26T22:48:12.752Z,99143.71
2022-12-26T22:53:21.891Z,99146.27
2022-12-26T22:58:30.336Z,99144.68
2022-12-26T23:03:39.035Z,99137.27
2022-12-26T23:08:48.723Z,99138.73
2022-12-26T23:13:58.115Z,99134.16
2022-12-26T23:19:31.370Z,99137.13
2022-12-26T23:24:39.833Z,99137.98
2022-12-26T23:30:07.137Z,99144.76
2022-12-26T23:35:15.980Z,99138.40
2022-12-26T23:40:24.912Z,99143.80
2022-12-26T23:45:33.661Z,99142.21
2022-12-26T23:50:41.804Z,99134.78
2022-12-26T23:55:49.962Z,99137.94
